Time;durP1;ratioP1;P1;durP2;ratioP2;P2;SDS_P1;SDS_P2;PMS_P1;PMS_P2;Temp;Humidity;BMP_temperature;BMP_pressure;BME280_temperature;BME280_humidity;BME280_pressure;Samples;Min_cycle;Max_cycle;Signal;HPM_P1;HPM_P2
2021/07/10 00:00:13;;;;;;;6.68;1.90;;;23.80;53.50;;;;;;5070537;28;20478;-50
2021/07/10 00:02:39;;;;;;;3.95;1.83;;;23.80;53.70;;;;;;5071243;28;20039;-54
2021/07/10 00:05:07;;;;;;;5.13;2.10;;;23.80;53.60;;;;;;5070792;28;20097;-53
2021/07/10 00:07:33;;;;;;;3.17;1.95;;;23.80;53.60;;;;;;5071846;28;20032;-53
2021/07/10 00:09:59;;;;;;;2.20;1.70;;;23.90;53.60;;;;;;5070208;28;20505;-56
2021/07/10 00:12:25;;;;;;;3.17;1.70;;;24.00;53.40;;;;;;5072103;28;20029;-52
2021/07/10 00:14:51;;;;;;;7.28;2.10;;;24.00;53.30;;;;;;5071135;28;20047;-57
2021/07/10 00:17:17;;;;;;;2.75;1.80;;;23.80;53.30;;;;;;5070062;28;20472;-54
2021/07/10 00:19:42;;;;;;;3.13;1.70;;;23.80;53.90;;;;;;5072154;28;20052;-55
2021/07/10 00:22:08;;;;;;;4.63;1.88;;;23.80;53.90;;;;;;5070158;28;20415;-55
2021/07/10 00:24:35;;;;;;;4.40;1.70;;;23.70;53.70;;;;;;5071990;28;20456;-55
2021/07/10 00:27:03;;;;;;;5.00;1.90;;;23.70;53.90;;;;;;5070621;28;20024;-52
2021/07/10 00:29:30;;;;;;;3.10;1.98;;;23.70;54.10;;;;;;5071230;28;20024;-51
2021/07/10 00:31:56;;;;;;;4.22;1.60;;;23.70;54.00;;;;;;5069651;28;20089;-55
2021/07/10 00:34:21;;;;;;;2.50;1.70;;;23.60;54.40;;;;;;5069466;28;20025;-54
2021/07/10 00:36:47;;;;;;;3.45;1.65;;;23.70;54.30;;;;;;5069776;28;20033;-55
2021/07/10 00:39:12;;;;;;;4.97;2.08;;;23.90;53.90;;;;;;5069349;28;20032;-55
2021/07/10 00:41:38;;;;;;;4.05;2.00;;;24.00;53.70;;;;;;5069934;28;20123;-53
2021/07/10 00:44:04;;;;;;;3.13;2.00;;;24.00;53.60;;;;;;5071474;28;20114;-55
2021/07/10 00:46:30;;;;;;;2.60;1.55;;;24.00;53.50;;;;;;5072380;28;20456;-56
2021/07/10 00:48:55;;;;;;;1.58;1.30;;;23.90;53.80;;;;;;5071593;28;20450;-53
2021/07/10 00:51:21;;;;;;;4.35;1.83;;;24.10;53.80;;;;;;5071817;28;20467;-52
2021/07/10 00:53:48;;;;;;;2.65;2.08;;;24.10;53.60;;;;;;5072303;28;20028;-53
2021/07/10 00:56:14;;;;;;;2.80;1.88;;;24.10;53.10;;;;;;5071227;28;20389;-54
2021/07/10 00:58:40;;;;;;;3.03;2.05;;;24.00;53.30;;;;;;5072020;28;20026;-50
2021/07/10 01:01:06;;;;;;;4.38;2.10;;;23.90;53.50;;;;;;5070274;28;20020;-55
2021/07/10 01:03:33;;;;;;;4.57;1.70;;;23.70;53.70;;;;;;5070396;28;20031;-53
2021/07/10 01:06:00;;;;;;;3.35;2.00;;;23.70;54.40;;;;;;5071550;28;20025;-51
2021/07/10 01:08:26;;;;;;;3.00;2.03;;;23.70;54.10;;;;;;5070617;28;20025;-55
2021/07/10 01:10:53;;;;;;;3.65;1.75;;;23.80;53.90;;;;;;5071958;28;20387;-53
2021/07/10 01:13:19;;;;;;;4.95;2.00;;;23.70;54.00;;;;;;5071755;28;20033;-54
2021/07/10 01:15:45;;;;;;;2.13;1.70;;;23.60;54.10;;;;;;5071565;28;20048;-49
2021/07/10 01:18:11;;;;;;;2.97;2.13;;;23.70;54.20;;;;;;5071592;28;20455;-52
2021/07/10 01:20:52;;;;;;;1.90;1.50;;;23.60;54.80;;;;;;5070578;28;20055;-47
2021/07/10 01:23:17;;;;;;;2.40;2.00;;;23.40;54.50;;;;;;5071141;28;20053;-48
2021/07/10 01:25:45;;;;;;;2.45;1.90;;;23.40;54.60;;;;;;5070384;28;20031;-53
2021/07/10 01:28:13;;;;;;;3.42;1.60;;;23.40;54.80;;;;;;5072298;28;20538;-52
2021/07/10 01:30:39;;;;;;;3.90;1.98;;;23.20;55.30;;;;;;5075406;28;20024;-53
2021/07/10 01:33:06;;;;;;;2.83;2.03;;;23.20;55.30;;;;;;5073444;28;20124;-50
2021/07/10 01:35:32;;;;;;;5.45;3.72;;;23.20;55.10;;;;;;5075168;28;20074;-49
2021/07/10 01:38:00;;;;;;;4.00;2.03;;;23.10;55.30;;;;;;5072555;28;20028;-55
2021/07/10 01:40:27;;;;;;;2.88;2.13;;;23.00;55.90;;;;;;5074823;28;20025;-52
2021/07/10 01:42:53;;;;;;;3.58;1.90;;;23.10;55.80;;;;;;5074546;28;20083;-54
2021/07/10 01:45:20;;;;;;;3.22;2.10;;;22.90;55.70;;;;;;5074364;28;20029;-48
2021/07/10 01:47:55;;;;;;;4.32;2.10;;;23.00;55.80;;;;;;5074603;28;20564;-51
2021/07/10 01:50:21;;;;;;;6.63;2.00;;;22.80;56.10;;;;;;5074287;28;20471;-55
2021/07/10 01:52:47;;;;;;;4.20;2.03;;;22.90;56.60;;;;;;5074739;28;20544;-52
2021/07/10 01:55:14;;;;;;;4.60;2.30;;;23.00;56.00;;;;;;5072980;28;20032;-56
2021/07/10 01:57:44;;;;;;;2.75;2.10;;;23.00;55.70;;;;;;5074803;28;20082;-53
2021/07/10 02:00:17;;;;;;;4.80;2.20;;;22.90;55.60;;;;;;5073801;28;20024;-51
2021/07/10 02:02:43;;;;;;;2.97;2.00;;;22.90;56.00;;;;;;5073376;28;20037;-49
2021/07/10 02:05:10;;;;;;;3.78;2.60;;;22.90;56.00;;;;;;5074210;28;20443;-51
2021/07/10 02:07:37;;;;;;;3.28;2.20;;;22.80;56.10;;;;;;5072671;28;20040;-56
2021/07/10 02:10:06;;;;;;;3.58;2.42;;;22.80;56.30;;;;;;5072355;28;20157;-54
2021/07/10 02:12:31;;;;;;;3.75;2.28;;;22.80;56.30;;;;;;5073830;28;20032;-53
2021/07/10 02:14:57;;;;;;;3.28;2.25;;;22.80;56.20;;;;;;5073824;28;20035;-52
2021/07/10 02:17:23;;;;;;;3.65;2.50;;;22.80;56.90;;;;;;5074028;28;20029;-53
2021/07/10 02:19:48;;;;;;;5.28;2.22;;;22.70;56.30;;;;;;5072458;28;20047;-50
2021/07/10 02:22:16;;;;;;;3.25;2.45;;;22.70;56.40;;;;;;5073046;28;20075;-54
2021/07/10 02:24:42;;;;;;;3.92;2.10;;;22.70;56.40;;;;;;5073636;28;20059;-51
2021/07/10 02:27:08;;;;;;;2.90;2.33;;;22.70;56.50;;;;;;5072934;28;20082;-51
2021/07/10 02:29:34;;;;;;;3.08;2.20;;;22.70;56.60;;;;;;5078957;28;20028;-51
2021/07/10 02:31:59;;;;;;;2.50;2.20;;;22.70;56.60;;;;;;5093566;28;20077;-53
2021/07/10 02:34:25;;;;;;;4.47;2.05;;;22.60;56.70;;;;;;5075203;28;20027;-48
2021/07/10 02:36:52;;;;;;;3.03;2.30;;;22.60;56.80;;;;;;5093424;28;20031;-51
2021/07/10 02:39:17;;;;;;;4.88;2.30;;;22.60;56.80;;;;;;5092463;28;20189;-52
2021/07/10 02:41:43;;;;;;;5.32;2.60;;;22.50;56.90;;;;;;5090556;28;20111;-50
2021/07/10 02:44:09;;;;;;;4.03;2.30;;;22.40;57.10;;;;;;5092277;28;20043;-53
2021/07/10 02:46:35;;;;;;;3.00;2.45;;;22.40;57.20;;;;;;5093173;28;20028;-51
2021/07/10 02:49:00;;;;;;;2.92;2.28;;;22.40;57.20;;;;;;5091979;28;20032;-50
2021/07/10 02:51:26;;;;;;;2.53;2.08;;;22.30;57.30;;;;;;5092792;28;20020;-55
2021/07/10 02:53:55;;;;;;;5.45;2.35;;;22.30;57.40;;;;;;5093550;28;20035;-53
2021/07/10 02:56:22;;;;;;;5.80;2.20;;;22.30;57.40;;;;;;5093040;28;20020;-50
2021/07/10 02:58:48;;;;;;;4.50;2.17;;;22.40;57.50;;;;;;5075362;28;20024;-50
2021/07/10 03:01:14;;;;;;;4.13;2.30;;;22.40;57.40;;;;;;5092643;28;20484;-49
2021/07/10 03:03:39;;;;;;;2.78;2.25;;;22.40;57.30;;;;;;5073515;28;20127;-54
2021/07/10 03:06:05;;;;;;;3.60;2.50;;;22.30;58.10;;;;;;5093065;28;20382;-50
2021/07/10 03:08:31;;;;;;;2.90;2.10;;;22.40;57.30;;;;;;5058779;28;20550;-53
2021/07/10 03:10:56;;;;;;;3.55;2.25;;;22.40;57.30;;;;;;5093492;28;20027;-55
2021/07/10 03:13:22;;;;;;;2.70;2.35;;;22.30;57.40;;;;;;5092932;28;20023;-54
2021/07/10 03:15:49;;;;;;;3.53;2.55;;;22.30;57.40;;;;;;5093989;28;20031;-54
2021/07/10 03:18:15;;;;;;;3.28;2.22;;;22.30;57.40;;;;;;5093142;28;20028;-53
2021/07/10 03:20:40;;;;;;;4.93;2.50;;;22.30;57.50;;;;;;5075481;28;20466;-53
2021/07/10 03:23:06;;;;;;;4.55;2.30;;;22.20;57.60;;;;;;5092765;28;20474;-54
2021/07/10 03:25:32;;;;;;;5.20;2.30;;;22.20;57.60;;;;;;5093458;28;20024;-53
2021/07/10 03:27:58;;;;;;;3.17;2.33;;;22.30;57.70;;;;;;5093598;28;20032;-55
2021/07/10 03:30:25;;;;;;;2.83;2.28;;;22.20;57.80;;;;;;5092794;28;20020;-53
2021/07/10 03:32:51;;;;;;;3.20;2.33;;;22.20;57.90;;;;;;5093356;28;20028;-52
2021/07/10 03:35:18;;;;;;;3.03;2.25;;;22.30;57.70;;;;;;5092541;28;20028;-53
2021/07/10 03:37:45;;;;;;;4.32;2.15;;;22.30;57.60;;;;;;5075364;28;20028;-53
2021/07/10 03:40:13;;;;;;;6.30;2.47;;;22.30;57.60;;;;;;5074647;28;20028;-53
2021/07/10 03:42:40;;;;;;;4.05;2.47;;;22.30;57.60;;;;;;5093425;28;20098;-48
2021/07/10 03:45:09;;;;;;;3.05;2.33;;;22.30;57.70;;;;;;5092963;28;20469;-52
2021/07/10 03:47:35;;;;;;;3.15;2.40;;;22.30;57.60;;;;;;5093328;28;20099;-53
2021/07/10 03:50:01;;;;;;;4.55;2.50;;;22.30;57.50;;;;;;5092543;28;20447;-53
2021/07/10 03:52:26;;;;;;;3.45;2.38;;;22.30;58.20;;;;;;5092588;28;20259;-54
2021/07/10 03:54:52;;;;;;;3.63;2.60;;;22.30;57.60;;;;;;5093019;28;20035;-53
2021/07/10 03:57:18;;;;;;;2.83;2.40;;;22.30;57.70;;;;;;5074257;28;20466;-54
2021/07/10 03:59:43;;;;;;;4.28;2.60;;;22.30;57.70;;;;;;5092944;28;20070;-49
2021/07/10 04:02:09;;;;;;;4.63;2.60;;;22.30;57.70;;;;;;5074064;28;20073;-52
2021/07/10 04:04:35;;;;;;;5.38;2.53;;;22.30;57.80;;;;;;5074655;28;20031;-49
2021/07/10 04:07:00;;;;;;;2.83;2.33;;;22.40;57.90;;;;;;5092907;28;20374;-52
2021/07/10 04:09:26;;;;;;;7.47;2.67;;;22.30;57.80;;;;;;5074042;28;20110;-51
2021/07/10 04:11:52;;;;;;;3.95;2.70;;;22.30;57.80;;;;;;5092828;28;20486;-52
2021/07/10 04:14:18;;;;;;;4.00;3.10;;;22.30;57.90;;;;;;5073682;28;20058;-53
2021/07/10 04:16:43;;;;;;;3.97;3.40;;;22.30;58.20;;;;;;5092467;28;20081;-48
2021/07/10 04:19:09;;;;;;;4.00;3.15;;;22.40;58.40;;;;;;5092004;28;20451;-59
2021/07/10 04:21:35;;;;;;;5.68;3.50;;;22.20;58.90;;;;;;5092050;28;20378;-50
2021/07/10 04:24:01;;;;;;;3.90;2.50;;;22.20;59.40;;;;;;5074343;28;20115;-53
2021/07/10 04:26:26;;;;;;;3.47;2.58;;;22.20;59.40;;;;;;5073681;28;20063;-49
2021/07/10 04:28:52;;;;;;;3.60;2.80;;;22.20;58.80;;;;;;5074339;28;20032;-53
2021/07/10 04:31:18;;;;;;;3.40;2.67;;;22.30;58.70;;;;;;5073761;28;20459;-49
2021/07/10 04:33:43;;;;;;;3.80;2.80;;;22.40;58.50;;;;;;5092165;28;20024;-52
2021/07/10 04:36:09;;;;;;;6.22;2.90;;;22.40;58.50;;;;;;5057434;28;20035;-52
2021/07/10 04:38:38;;;;;;;4.15;2.72;;;22.40;58.30;;;;;;5092173;28;20035;-51
2021/07/10 04:41:07;;;;;;;4.65;2.50;;;22.40;58.30;;;;;;5074306;28;20387;-52
2021/07/10 04:43:34;;;;;;;4.80;2.50;;;22.50;58.30;;;;;;5073405;28;20390;-53
2021/07/10 04:46:00;;;;;;;3.15;2.63;;;22.50;58.00;;;;;;5092258;28;20047;-53
2021/07/10 04:48:26;;;;;;;3.20;2.67;;;22.60;57.80;;;;;;5073100;28;20034;-55
2021/07/10 04:50:52;;;;;;;4.47;2.80;;;22.60;57.80;;;;;;5073659;28;20378;-50
2021/07/10 04:53:18;;;;;;;4.07;2.40;;;22.60;57.70;;;;;;5090594;28;20036;-49
2021/07/10 04:55:44;;;;;;;3.75;2.67;;;22.70;57.70;;;;;;5073412;28;20025;-53
2021/07/10 04:58:11;;;;;;;3.83;2.67;;;22.70;57.30;;;;;;5091614;28;20028;-53
2021/07/10 05:00:37;;;;;;;3.53;2.65;;;22.70;57.30;;;;;;5073995;28;20028;-50
2021/07/10 05:03:03;;;;;;;5.75;2.30;;;22.70;57.30;;;;;;5094086;28;20386;-53
2021/07/10 05:05:29;;;;;;;3.22;2.15;;;22.60;57.30;;;;;;5095164;28;20032;-50
2021/07/10 05:07:55;;;;;;;2.35;2.15;;;22.70;56.90;;;;;;5094308;28;20039;-53
2021/07/10 05:10:21;;;;;;;3.65;2.20;;;22.70;56.60;;;;;;5094365;28;20463;-53
2021/07/10 05:12:47;;;;;;;3.65;1.90;;;22.80;56.30;;;;;;5077505;28;20060;-52
2021/07/10 05:15:14;;;;;;;2.42;1.80;;;22.80;55.90;;;;;;5076509;28;20020;-62
2021/07/10 05:17:40;;;;;;;2.42;1.90;;;22.80;55.60;;;;;;5095585;28;20027;-54
2021/07/10 05:20:07;;;;;;;11.68;2.60;;;22.80;55.50;;;;;;5077490;28;20028;-50
2021/07/10 05:22:33;;;;;;;4.65;1.88;;;22.80;55.40;;;;;;5094573;28;20342;-52
2021/07/10 05:24:59;;;;;;;6.05;1.98;;;22.90;55.10;;;;;;5095604;28;20081;-51
2021/07/10 05:27:24;;;;;;;9.15;2.72;;;23.00;54.60;;;;;;5095135;28;20031;-52
2021/07/10 05:29:50;;;;;;;8.02;1.88;;;23.00;54.40;;;;;;5077138;28;20474;-51
2021/07/10 05:32:17;;;;;;;4.95;1.77;;;23.10;54.20;;;;;;5076597;28;20435;-54
2021/07/10 05:34:44;;;;;;;3.13;1.60;;;23.10;53.70;;;;;;5076857;28;20020;-55
2021/07/10 05:37:10;;;;;;;3.65;1.98;;;23.10;53.50;;;;;;5095059;28;20028;-51
2021/07/10 05:39:38;;;;;;;4.93;1.55;;;23.20;53.30;;;;;;5094846;28;20478;-54
2021/07/10 05:42:04;;;;;;;5.43;1.35;;;23.30;53.10;;;;;;5095226;28;20051;-53
2021/07/10 05:44:30;;;;;;;2.42;1.30;;;23.30;52.80;;;;;;5094512;28;20076;-54
2021/07/10 05:46:56;;;;;;;2.92;1.35;;;23.40;52.60;;;;;;5094978;28;20024;-55
2021/07/10 05:49:21;;;;;;;2.67;1.40;;;23.40;52.60;;;;;;5094320;28;20029;-51
2021/07/10 05:51:47;;;;;;;6.55;1.48;;;23.40;52.70;;;;;;5094826;28;20035;-53
2021/07/10 05:54:13;;;;;;;4.25;1.80;;;23.50;52.80;;;;;;5094552;28;20083;-48
2021/07/10 05:56:39;;;;;;;6.13;1.55;;;23.50;52.70;;;;;;5094697;28;20024;-48
2021/07/10 05:59:05;;;;;;;4.35;1.52;;;23.50;52.60;;;;;;5076840;28;20028;-53
2021/07/10 06:01:30;;;;;;;4.07;1.73;;;23.60;52.30;;;;;;5075987;28;20024;-52
2021/07/10 06:03:56;;;;;;;6.45;1.77;;;23.70;52.20;;;;;;5094441;28;20032;-53
2021/07/10 06:06:21;;;;;;;3.72;1.25;;;23.70;52.00;;;;;;5094172;28;20035;-50
2021/07/10 06:08:47;;;;;;;2.10;1.50;;;23.70;51.60;;;;;;5094757;28;20170;-54
2021/07/10 06:11:13;;;;;;;3.40;1.30;;;23.80;51.30;;;;;;5094306;28;20047;-51
2021/07/10 06:13:40;;;;;;;1.27;1.00;;;23.90;50.80;;;;;;5092758;28;20020;-55
2021/07/10 06:16:05;;;;;;;4.32;1.30;;;23.90;50.70;;;;;;5094150;28;20021;-54
2021/07/10 06:18:31;;;;;;;1.52;1.00;;;23.90;50.70;;;;;;5093835;28;20024;-51
2021/07/10 06:20:56;;;;;;;5.03;1.10;;;24.00;50.30;;;;;;5094249;28;20020;-55
2021/07/10 06:23:22;;;;;;;2.80;1.23;;;24.10;49.80;;;;;;5093670;28;20489;-49
2021/07/10 06:25:48;;;;;;;3.92;1.30;;;24.10;49.70;;;;;;5094341;28;20036;-51
2021/07/10 06:28:14;;;;;;;2.75;1.20;;;24.20;49.60;;;;;;5094216;28;20035;-54
2021/07/10 06:30:39;;;;;;;1.40;1.10;;;24.20;49.70;;;;;;5075509;28;20028;-53
2021/07/10 06:33:05;;;;;;;8.48;1.30;;;24.20;49.40;;;;;;5075933;28;20110;-50
2021/07/10 06:35:31;;;;;;;14.82;1.85;;;24.20;49.10;;;;;;5093353;28;20455;-51
2021/07/10 06:37:57;;;;;;;1.25;1.00;;;24.20;48.90;;;;;;5094117;28;20028;-55
2021/07/10 06:40:23;;;;;;;13.93;1.73;;;24.30;48.60;;;;;;5074988;28;20074;-49
2021/07/10 06:42:49;;;;;;;4.18;1.10;;;24.20;48.60;;;;;;5075357;28;20478;-49
2021/07/10 06:45:16;;;;;;;2.38;1.20;;;24.40;48.10;;;;;;5076016;28;20114;-50
2021/07/10 06:47:43;;;;;;;1.90;1.08;;;24.50;47.90;;;;;;5075743;28;20020;-52
2021/07/10 06:50:11;;;;;;;3.15;1.10;;;24.60;47.80;;;;;;5093708;28;20126;-53
2021/07/10 06:52:37;;;;;;;1.13;0.85;;;24.80;47.40;;;;;;5075618;28;20055;-54
2021/07/10 06:55:08;;;;;;;2.08;1.02;;;24.90;46.90;;;;;;5093873;28;20025;-56
2021/07/10 06:57:33;;;;;;;3.60;1.35;;;25.70;46.40;;;;;;5093574;28;20028;-53
2021/07/10 07:00:00;;;;;;;5.72;1.50;;;28.70;43.60;;;;;;5075633;28;20020;-53
2021/07/10 07:02:25;;;;;;;12.65;1.90;;;32.90;36.60;;;;;;5074718;28;20102;-56
2021/07/10 07:04:51;;;;;;;1.48;0.90;;;36.40;31.60;;;;;;5093733;28;20036;-55
2021/07/10 07:07:17;;;;;;;4.97;1.10;;;38.90;29.00;;;;;;5075420;28;20056;-54
2021/07/10 07:09:43;;;;;;;7.40;1.50;;;40.30;27.30;;;;;;5075483;28;20111;-54
2021/07/10 07:12:09;;;;;;;5.78;1.30;;;40.80;26.60;;;;;;5093185;28;20426;-56
2021/07/10 07:14:34;;;;;;;2.42;1.10;;;41.20;26.50;;;;;;5092477;28;20024;-54
2021/07/10 07:17:02;;;;;;;3.90;1.00;;;42.40;25.70;;;;;;5093205;28;20025;-57
2021/07/10 07:19:30;;;;;;;2.30;0.90;;;43.20;25.00;;;;;;5092658;28;20039;-51
2021/07/10 07:21:56;;;;;;;1.33;1.00;;;43.80;24.70;;;;;;5092634;28;20035;-53
2021/07/10 07:24:23;;;;;;;2.85;1.00;;;44.10;24.30;;;;;;5092810;28;20020;-52
2021/07/10 07:26:49;;;;;;;2.20;1.00;;;44.90;24.00;;;;;;5092968;28;20038;-51
2021/07/10 07:29:15;;;;;;;2.22;1.30;;;45.80;23.70;;;;;;5092864;28;20531;-51
2021/07/10 07:31:41;;;;;;;6.32;1.60;;;46.30;23.30;;;;;;5092183;28;20063;-54
2021/07/10 07:34:07;;;;;;;2.75;1.33;;;46.80;23.20;;;;;;5092876;28;20024;-55
2021/07/10 07:36:33;;;;;;;5.80;1.20;;;47.40;22.60;;;;;;5092296;28;20031;-56
2021/07/10 07:39:01;;;;;;;0.98;0.90;;;47.40;22.40;;;;;;5092994;28;20099;-59
2021/07/10 07:41:27;;;;;;;3.17;1.13;;;47.50;22.30;;;;;;5092320;28;20115;-55
2021/07/10 07:43:53;;;;;;;5.10;1.90;;;47.40;22.10;;;;;;5074197;28;20138;-51
2021/07/10 07:46:19;;;;;;;3.17;2.10;;;48.00;22.10;;;;;;5092370;28;20047;-54
2021/07/10 07:48:44;;;;;;;6.75;2.38;;;48.80;21.70;;;;;;5092059;28;20024;-55
2021/07/10 07:51:12;;;;;;;2.30;2.10;;;49.70;21.50;;;;;;5092783;28;20470;-52
2021/07/10 07:53:38;;;;;;;2.25;2.00;;;50.70;21.10;;;;;;5092417;28;20104;-53
2021/07/10 07:56:04;;;;;;;8.27;1.90;;;51.90;20.70;;;;;;5092206;28;20103;-56
2021/07/10 07:58:30;;;;;;;4.55;2.15;;;52.90;20.40;;;;;;5073855;28;20027;-56
2021/07/10 08:00:56;;;;;;;4.85;2.05;;;53.70;20.00;;;;;;5092513;28;20024;-50
2021/07/10 08:03:22;;;;;;;3.08;2.08;;;54.30;19.90;;;;;;5073669;28;20032;-67
2021/07/10 08:05:47;;;;;;;4.35;2.10;;;55.00;19.60;;;;;;5074275;28;20142;-52
2021/07/10 08:08:14;;;;;;;2.38;2.17;;;55.70;19.50;;;;;;5092044;28;20481;-50
2021/07/10 08:10:39;;;;;;;2.25;2.05;;;56.30;19.20;;;;;;5073273;28;20122;-52
2021/07/10 08:13:05;;;;;;;2.75;2.03;;;56.40;19.10;;;;;;5091763;28;20119;-52
2021/07/10 08:15:31;;;;;;;2.38;2.10;;;56.80;19.00;;;;;;5091484;28;20327;-53
2021/07/10 08:17:57;;;;;;;2.78;2.10;;;56.20;18.70;;;;;;5092018;28;20398;-54
2021/07/10 08:20:24;;;;;;;6.07;1.70;;;56.30;18.90;;;;;;5073554;28;20115;-63
2021/07/10 08:22:50;;;;;;;2.28;1.85;;;56.10;18.90;;;;;;5091550;28;20551;-53
2021/07/10 08:25:16;;;;;;;15.85;3.17;;;55.80;18.80;;;;;;5072699;28;20040;-56
2021/07/10 08:27:45;;;;;;;36.45;4.30;;;56.30;18.90;;;;;;5072813;28;20512;-57
2021/07/10 08:30:16;;;;;;;7.95;2.90;;;56.80;18.60;;;;;;5091182;28;20050;-54
2021/07/10 08:32:44;;;;;;;17.73;3.53;;;57.90;18.50;;;;;;5091228;28;20115;-54
2021/07/10 08:35:10;;;;;;;11.05;3.17;;;58.60;18.30;;;;;;5091327;28;20124;-54
2021/07/10 08:37:36;;;;;;;22.67;3.70;;;59.00;18.20;;;;;;5090051;28;20427;-55
2021/07/10 08:40:04;;;;;;;4.97;2.45;;;59.40;18.10;;;;;;5072312;28;20024;-53
2021/07/10 08:42:30;;;;;;;2.33;2.13;;;59.90;18.00;;;;;;5090099;28;20024;-55
2021/07/10 08:44:56;;;;;;;2.65;2.13;;;60.10;17.90;;;;;;5091015;28;20039;-57
2021/07/10 08:47:23;;;;;;;2.75;2.53;;;60.60;17.80;;;;;;5090866;28;20462;-55
2021/07/10 08:49:49;;;;;;;9.25;2.90;;;60.70;17.70;;;;;;5072189;28;20115;-60
2021/07/10 08:52:15;;;;;;;4.53;2.85;;;60.90;17.70;;;;;;5073212;28;20035;-53
2021/07/10 08:54:41;;;;;;;3.35;2.50;;;61.50;17.60;;;;;;5090624;28;20028;-55
2021/07/10 08:57:09;;;;;;;5.38;2.90;;;62.00;17.40;;;;;;5072557;28;20020;-59
2021/07/10 08:59:36;;;;;;;9.95;3.63;;;62.70;17.40;;;;;;5072352;28;20028;-55
2021/07/10 09:02:02;;;;;;;35.20;5.05;;;62.90;17.30;;;;;;5091396;28;20461;-55
2021/07/10 09:04:28;;;;;;;19.48;5.75;;;62.80;17.20;;;;;;5090544;28;20103;-53
2021/07/10 09:06:54;;;;;;;8.75;3.13;;;62.00;17.20;;;;;;5072733;28;20152;-54
2021/07/10 09:09:20;;;;;;;17.52;5.10;;;60.20;17.30;;;;;;5090843;28;20473;-55
2021/07/10 09:11:59;;;;;;;19.35;2.95;;;59.10;17.60;;;;;;5090414;28;20089;-55
2021/07/10 09:14:32;;;;;;;19.15;5.80;;;58.50;17.80;;;;;;5056141;28;20030;-53
2021/07/10 09:17:19;;;;;;;9.82;4.28;;;57.60;18.00;;;;;;5090995;28;20024;-56
2021/07/10 09:19:47;;;;;;;5.47;1.60;;;57.10;18.30;;;;;;5090980;28;20020;-54
2021/07/10 09:22:28;;;;;;;3.95;1.10;;;56.90;18.20;;;;;;5091006;28;20044;-53
2021/07/10 09:24:55;;;;;;;2.75;0.95;;;55.60;18.30;;;;;;5091327;28;20044;-53
2021/07/10 09:27:21;;;;;;;1.10;0.80;;;51.80;19.10;;;;;;5072551;28;20129;-53
2021/07/10 09:29:49;;;;;;;2.13;0.98;;;48.00;20.20;;;;;;5090101;28;20085;-55
2021/07/10 09:32:23;;;;;;;5.40;1.58;;;44.60;21.60;;;;;;5055643;28;20024;-56
2021/07/10 09:34:54;;;;;;;4.72;1.88;;;41.70;23.20;;;;;;5089603;28;20131;-54
2021/07/10 09:37:25;;;;;;;1.60;0.82;;;39.60;24.50;;;;;;5090685;28;20020;-57
2021/07/10 09:39:57;;;;;;;3.05;1.60;;;37.80;25.60;;;;;;5071616;28;20024;-54
2021/07/10 09:42:29;;;;;;;7.68;1.40;;;36.30;27.20;;;;;;5071987;28;20123;-53
2021/07/10 09:44:55;;;;;;;11.15;1.25;;;35.40;27.60;;;;;;5071789;28;20024;-53
2021/07/10 09:47:26;;;;;;;18.88;2.08;;;34.50;28.30;;;;;;5090482;28;20170;-49
2021/07/10 09:49:53;;;;;;;8.98;1.20;;;33.50;29.40;;;;;;5089031;28;20048;-52
2021/07/10 09:52:20;;;;;;;15.15;1.80;;;32.90;30.00;;;;;;5094185;28;20042;-53
2021/07/10 09:54:51;;;;;;;7.78;1.67;;;32.10;30.80;;;;;;5093647;28;20355;-55
2021/07/10 09:57:28;;;;;;;11.00;2.22;;;31.30;31.60;;;;;;5076299;28;20020;-56
2021/07/10 09:59:56;;;;;;;8.50;1.10;;;31.00;32.00;;;;;;5075063;28;20085;-53
2021/07/10 10:02:33;;;;;;;4.10;1.35;;;30.80;32.30;;;;;;5075672;28;20063;-54
2021/07/10 10:05:11;;;;;;;19.98;2.17;;;30.70;32.60;;;;;;5094006;28;20063;-55
2021/07/10 10:07:47;;;;;;;9.57;1.63;;;30.50;33.30;;;;;;5074836;28;20032;-53
2021/07/10 10:10:22;;;;;;;17.85;12.70;;;30.10;33.80;;;;;;5093528;28;20024;-54
2021/07/10 10:13:09;;;;;;;14.43;7.80;;;29.90;34.10;;;;;;5074060;28;20024;-53
2021/07/10 10:15:40;;;;;;;30.80;2.70;;;29.60;34.50;;;;;;5074756;28;20028;-55
2021/07/10 10:18:07;;;;;;;15.70;3.10;;;29.50;35.10;;;;;;5093491;28;20071;-57
2021/07/10 10:20:34;;;;;;;15.65;2.35;;;29.20;35.10;;;;;;5093426;28;20028;-66
2021/07/10 10:23:01;;;;;;;8.90;1.52;;;29.20;35.20;;;;;;5092829;28;20044;-56
2021/07/10 10:25:27;;;;;;;8.45;3.33;;;29.20;35.30;;;;;;5075081;28;20081;-58
2021/07/10 10:27:53;;;;;;;3.53;1.30;;;29.10;35.30;;;;;;5074345;28;20258;-55
2021/07/10 10:30:21;;;;;;;5.75;1.10;;;29.10;35.50;;;;;;5092395;28;20428;-55
2021/07/10 10:32:49;;;;;;;7.40;2.50;;;29.30;35.10;;;;;;5091550;28;20103;-57
2021/07/10 10:35:16;;;;;;;7.47;1.90;;;29.20;35.00;;;;;;5074036;28;20024;-56
2021/07/10 10:37:42;;;;;;;3.42;1.05;;;29.10;35.20;;;;;;5073758;28;20470;-54
2021/07/10 10:40:16;;;;;;;6.75;1.02;;;29.10;35.10;;;;;;5074033;28;20505;-59
2021/07/10 10:42:43;;;;;;;3.13;1.70;;;29.10;35.20;;;;;;5073112;28;20032;-54
2021/07/10 10:45:10;;;;;;;8.18;3.15;;;29.20;34.90;;;;;;5092628;28;20032;-53
2021/07/10 10:47:42;;;;;;;4.82;2.45;;;28.80;35.50;;;;;;5092340;28;20100;-58
2021/07/10 10:50:19;;;;;;;4.65;1.52;;;28.90;35.60;;;;;;5092409;28;20484;-52
2021/07/10 10:52:47;;;;;;;3.83;0.90;;;28.80;35.60;;;;;;5091871;28;20027;-53
2021/07/10 10:55:42;;;;;;;4.43;0.95;;;29.00;35.40;;;;;;5073846;28;20031;-54
2021/07/10 10:58:10;;;;;;;6.43;0.90;;;29.10;35.30;;;;;;5090796;28;20142;-55
2021/07/10 11:00:38;;;;;;;3.60;0.80;;;29.20;34.30;;;;;;5090478;28;20028;-62
2021/07/10 11:03:13;;;;;;;13.38;3.90;;;29.30;34.00;;;;;;5072650;28;20039;-55
2021/07/10 11:06:00;;;;;;;7.90;1.30;;;29.40;34.30;;;;;;5091417;28;20055;-62
2021/07/10 11:08:27;;;;;;;4.03;0.95;;;29.30;34.20;;;;;;5072207;28;20146;-54
2021/07/10 11:10:53;;;;;;;6.57;1.92;;;29.10;34.10;;;;;;5091423;28;20050;-55
2021/07/10 11:13:36;;;;;;;4.03;0.80;;;29.10;34.30;;;;;;5092168;28;20458;-53
2021/07/10 11:16:18;;;;;;;3.80;0.80;;;29.20;33.90;;;;;;5091749;28;20020;-54
2021/07/10 11:18:58;;;;;;;1.50;0.80;;;29.30;34.40;;;;;;5072809;28;20127;-53
2021/07/10 11:21:53;;;;;;;68.85;54.97;;;29.40;33.80;;;;;;5073348;28;20114;-55
2021/07/10 11:24:20;;;;;;;10.63;4.25;;;29.20;33.80;;;;;;5073342;28;20047;-51
2021/07/10 11:26:55;;;;;;;6.45;1.20;;;29.30;33.90;;;;;;5072655;28;20122;-53
2021/07/10 11:29:36;;;;;;;4.72;2.30;;;29.50;33.80;;;;;;5091124;28;20026;-53
2021/07/10 11:32:19;;;;;;;1.77;1.00;;;29.60;33.90;;;;;;5091135;28;20474;-51
2021/07/10 11:34:49;;;;;;;3.22;1.05;;;29.80;34.00;;;;;;5072419;28;20124;-52
2021/07/10 11:37:43;;;;;;;2.28;1.00;;;29.90;33.80;;;;;;5073318;28;20024;-55
2021/07/10 11:40:10;;;;;;;4.30;0.90;;;30.00;33.20;;;;;;5073329;28;20145;-53
2021/07/10 11:42:47;;;;;;;6.00;1.38;;;30.00;32.90;;;;;;5091474;28;20040;-66
2021/07/10 11:45:24;;;;;;;61.70;46.50;;;30.00;33.20;;;;;;5072770;28;20030;-61
2021/07/10 11:47:55;;;;;;;6.30;4.72;;;30.00;33.50;;;;;;5091182;28;20074;-54
2021/07/10 11:50:22;;;;;;;7.18;2.45;;;30.20;33.00;;;;;;5073006;28;20116;-55
2021/07/10 11:52:58;;;;;;;5.18;1.92;;;30.40;32.90;;;;;;5090756;28;20036;-52
2021/07/10 11:55:27;;;;;;;6.13;0.82;;;30.40;32.00;;;;;;5090926;28;20050;-54
2021/07/10 11:57:53;;;;;;;4.95;2.08;;;30.30;31.90;;;;;;5072394;28;20031;-58
2021/07/10 12:00:23;;;;;;;4.55;1.38;;;30.30;32.40;;;;;;5072507;28;20036;-57
2021/07/10 12:02:48;;;;;;;0.80;0.60;;;30.30;32.40;;;;;;5090019;28;20055;-52
2021/07/10 12:05:21;;;;;;;9.65;3.75;;;30.30;32.30;;;;;;5089708;28;20051;-54
2021/07/10 12:07:51;;;;;;;4.47;1.88;;;30.40;32.90;;;;;;5087638;28;20056;-58
2021/07/10 12:10:20;;;;;;;5.25;3.33;;;30.50;32.30;;;;;;5072588;28;20026;-56
2021/07/10 12:12:54;;;;;;;5.97;1.10;;;30.60;32.30;;;;;;5088611;28;20062;-57
2021/07/10 12:15:30;;;;;;;8.00;2.10;;;30.80;31.50;;;;;;5070467;28;20028;-53
2021/07/10 12:17:58;;;;;;;4.05;1.20;;;30.80;31.90;;;;;;5071952;28;20024;-57
2021/07/10 12:20:30;;;;;;;6.80;1.40;;;30.90;31.50;;;;;;5070431;28;20032;-57
2021/07/10 12:23:19;;;;;;;9.23;5.22;;;31.00;31.30;;;;;;5088826;28;20105;-54
2021/07/10 12:25:55;;;;;;;2.63;1.45;;;31.10;31.20;;;;;;5088058;28;20048;-55
2021/07/10 12:28:31;;;;;;;2.13;1.30;;;31.20;30.20;;;;;;5071825;28;20120;-55
2021/07/10 12:30:58;;;;;;;2.70;1.30;;;31.10;30.30;;;;;;5071133;28;20207;-57
2021/07/10 12:33:35;;;;;;;1.58;0.50;;;31.10;30.70;;;;;;5086946;28;20051;-56
2021/07/10 12:36:12;;;;;;;3.47;1.90;;;31.30;30.80;;;;;;5089358;28;20058;-54
2021/07/10 12:39:08;;;;;;;1.38;0.60;;;31.40;31.00;;;;;;5066159;28;20025;-61
2021/07/10 12:42:11;;;;;;;1.70;1.50;;;31.60;30.80;;;;;;5053424;28;20494;-56
2021/07/10 12:44:40;;;;;;;3.35;1.10;;;31.60;30.70;;;;;;5051363;28;20044;-65
2021/07/10 12:47:18;;;;;;;4.75;2.92;;;31.70;30.70;;;;;;5088756;28;20058;-56
2021/07/10 12:49:58;;;;;;;2.80;1.45;;;31.80;30.70;;;;;;5089153;28;20111;-58